Time;durP1;ratioP1;P1;durP2;ratioP2;P2;SDS_P1;SDS_P2;PMS_P1;PMS_P2;Temp;Humidity;BMP_temperature;BMP_pressure;BME280_temperature;BME280_humidity;BME280_pressure;Samples;Min_cycle;Max_cycle;Signal;HPM_P1;HPM_P2
2022/10/11 00:00:55;;;;;;;;;;;12.30;99.90;;;;;;5055430;28;19972;-81
2022/10/11 00:03:20;;;;;;;;;;;12.30;99.90;;;;;;5055891;28;19963;-81
2022/10/11 00:05:46;;;;;;;;;;;12.20;99.90;;;;;;5057469;28;19920;-81
2022/10/11 00:08:12;;;;;;;;;;;12.10;99.90;;;;;;5057430;28;19927;-81
2022/10/11 00:10:38;;;;;;;;;;;12.30;99.90;;;;;;5057953;28;19928;-81
2022/10/11 00:13:04;;;;;;;;;;;12.20;99.90;;;;;;5063203;28;20445;-81
2022/10/11 00:15:29;;;;;;;;;;;12.20;99.90;;;;;;5071699;28;19917;-80
2022/10/11 00:17:55;;;;;;;;;;;12.20;99.90;;;;;;5053937;28;19913;-81
2022/10/11 00:20:20;;;;;;;;;;;12.10;99.90;;;;;;5063676;28;19964;-81
2022/10/11 00:22:48;;;;;;;;;;;12.10;99.90;;;;;;5061710;28;20382;-80
2022/10/11 00:25:14;;;;;;;;;;;12.00;99.90;;;;;;5054784;28;20305;-81
2022/10/11 00:27:39;;;;;;;;;;;12.00;99.90;;;;;;5057754;28;19916;-81
2022/10/11 00:30:05;;;;;;;;;;;12.00;99.90;;;;;;5061216;28;19974;-81
2022/10/11 00:32:31;;;;;;;;;;;12.00;99.90;;;;;;5057221;28;19920;-81
2022/10/11 00:35:03;;;;;;;;;;;12.00;99.90;;;;;;5055688;28;19920;-81
2022/10/11 00:37:33;;;;;;;;;;;12.00;99.90;;;;;;5062657;28;20612;-81
2022/10/11 00:39:58;;;;;;;;;;;12.00;99.90;;;;;;5055766;28;19920;-81
2022/10/11 00:42:24;;;;;;;;;;;11.90;99.90;;;;;;5059981;28;19916;-81
2022/10/11 00:44:50;;;;;;;;;;;11.90;99.90;;;;;;5062968;28;20379;-81
2022/10/11 00:47:20;;;;;;;;;;;11.90;99.90;;;;;;5050931;28;20617;-80
2022/10/11 00:49:48;;;;;;;;;;;11.90;99.90;;;;;;5053566;28;19916;-81
2022/10/11 00:52:17;;;;;;;;;;;11.90;99.90;;;;;;5055788;28;19923;-81
2022/10/11 00:54:44;;;;;;;;;;;11.80;99.90;;;;;;5053220;28;19931;-81
2022/10/11 00:57:12;;;;;;;;;;;11.80;99.90;;;;;;5061180;28;20086;-81
2022/10/11 00:59:42;;;;;;;;;;;11.70;99.90;;;;;;5059010;28;19923;-81
2022/10/11 01:02:08;;;;;;;;;;;11.70;99.90;;;;;;5057455;28;19921;-80
2022/10/11 01:04:34;;;;;;;;;;;11.60;99.90;;;;;;5054837;28;19923;-81
2022/10/11 01:07:00;;;;;;;;;;;11.60;99.90;;;;;;5061692;28;20379;-81
2022/10/11 01:09:26;;;;;;;;;;;11.60;99.90;;;;;;5057064;28;20052;-81
2022/10/11 01:11:52;;;;;;;;;;;11.50;99.90;;;;;;5060142;28;20378;-81
2022/10/11 01:14:33;;;;;;;;;;;11.50;99.90;;;;;;5058831;28;19931;-80
2022/10/11 01:17:03;;;;;;;;;;;11.40;99.90;;;;;;5049955;28;19924;-80
2022/10/11 01:19:48;;;;;;;;;;;11.30;99.90;;;;;;5055053;28;19916;-81
2022/10/11 01:22:32;;;;;;;;;;;11.30;99.90;;;;;;5057015;28;19920;-81
2022/10/11 01:25:16;;;;;;;;;;;11.20;99.90;;;;;;5055314;28;19935;-81
2022/10/11 01:27:57;;;;;;;;;;;11.20;99.90;;;;;;5059410;28;19912;-81
2022/10/11 01:30:24;;;;;;;;;;;11.30;99.90;;;;;;5050241;28;19921;-81
2022/10/11 01:33:05;;;;;;;;;;;11.30;99.90;;;;;;5049545;28;19913;-81
2022/10/11 01:35:48;;;;;;;;;;;11.20;99.90;;;;;;5056067;28;19978;-81
2022/10/11 01:38:22;;;;;;;;;;;11.20;99.90;;;;;;5057634;28;19912;-80
2022/10/11 01:40:49;;;;;;;;;;;11.20;99.90;;;;;;5044761;28;19921;-81
2022/10/11 01:43:16;;;;;;;;;;;11.20;99.90;;;;;;5052839;28;19916;-81
2022/10/11 01:45:42;;;;;;;;;;;11.30;99.90;;;;;;5060367;28;19930;-81
2022/10/11 01:48:09;;;;;;;;;;;11.30;99.90;;;;;;5048578;28;19945;-81
2022/10/11 01:50:39;;;;;;;;;;;11.30;99.90;;;;;;5060739;28;20003;-81
2022/10/11 01:53:16;;;;;;;;;;;11.30;99.90;;;;;;5057609;28;19964;-81
2022/10/11 01:55:57;;;;;;;;;;;11.40;99.90;;;;;;5058116;28;20004;-81
2022/10/11 01:58:49;;;;;;;;;;;11.40;99.90;;;;;;5058712;28;19921;-81
2022/10/11 02:01:14;;;;;;;;;;;11.40;99.90;;;;;;5043046;28;19920;-81
2022/10/11 02:03:44;;;;;;;;;;;11.40;99.90;;;;;;5053486;28;19927;-81
2022/10/11 02:06:12;;;;;;;;;;;11.50;99.90;;;;;;5060978;28;19973;-81
2022/10/11 02:08:57;;;;;;;;;;;11.40;99.90;;;;;;5058641;28;20382;-81
2022/10/11 02:11:27;;;;;;;;;;;11.40;99.90;;;;;;5056179;28;19969;-81
2022/10/11 02:13:56;;;;;;;;;;;11.40;99.90;;;;;;5059992;28;20019;-81
2022/10/11 02:16:24;;;;;;;;;;;11.40;99.90;;;;;;5051372;28;19913;-81
2022/10/11 02:18:51;;;;;;;;;;;11.40;99.90;;;;;;5052811;28;20283;-81
2022/10/11 02:21:20;;;;;;;;;;;11.40;99.90;;;;;;5060645;28;20043;-81
2022/10/11 02:23:53;;;;;;;;;;;11.40;99.90;;;;;;5053433;28;19917;-81
2022/10/11 02:26:20;;;;;;;;;;;11.40;99.90;;;;;;5052363;28;20374;-81
2022/10/11 02:28:46;;;;;;;;;;;11.40;99.90;;;;;;5054201;28;20442;-81
2022/10/11 02:31:14;;;;;;;;;;;11.40;99.90;;;;;;5057291;28;20030;-81
2022/10/11 02:33:43;;;;;;;;;;;11.40;99.90;;;;;;5052955;28;20340;-81
2022/10/11 02:36:30;;;;;;;;;;;11.30;99.90;;;;;;5066472;28;19920;-80
2022/10/11 02:38:58;;;;;;;;;;;11.40;99.90;;;;;;5060034;28;20520;-81
2022/10/11 02:41:29;;;;;;;;;;;11.30;99.90;;;;;;5056537;28;20023;-81
2022/10/11 02:44:01;;;;;;;;;;;11.30;99.90;;;;;;5063714;28;19916;-81
2022/10/11 02:46:29;;;;;;;;;;;11.30;99.90;;;;;;5061440;28;20023;-81
2022/10/11 02:48:58;;;;;;;;;;;11.20;99.90;;;;;;5054840;28;20193;-81
2022/10/11 02:51:24;;;;;;;;;;;11.20;99.90;;;;;;5066044;28;19925;-81
2022/10/11 02:53:49;;;;;;;;;;;11.20;99.90;;;;;;5059348;28;19924;-80
2022/10/11 02:56:15;;;;;;;;;;;11.10;99.90;;;;;;5057281;28;19970;-80
2022/10/11 02:58:40;;;;;;;;;;;11.10;99.90;;;;;;5068914;28;19905;-81
2022/10/11 03:01:06;;;;;;;;;;;11.10;99.90;;;;;;5069084;28;20380;-80
2022/10/11 03:03:31;;;;;;;;;;;11.10;99.90;;;;;;5056556;28;20024;-81
2022/10/11 03:05:58;;;;;;;;;;;11.00;99.90;;;;;;5065135;28;19920;-80
2022/10/11 03:08:24;;;;;;;;;;;11.00;99.90;;;;;;5057561;28;19916;-80
2022/10/11 03:10:49;;;;;;;;;;;11.00;99.90;;;;;;5056027;28;19920;-80
2022/10/11 03:13:15;;;;;;;;;;;11.00;99.90;;;;;;5061332;28;19940;-81
2022/10/11 03:15:40;;;;;;;;;;;10.90;99.90;;;;;;5073727;28;19928;-81
2022/10/11 03:18:06;;;;;;;;;;;10.90;99.90;;;;;;5053554;28;19928;-81
2022/10/11 03:20:31;;;;;;;;;;;10.90;99.90;;;;;;5055354;28;19920;-81
2022/10/11 03:22:57;;;;;;;;;;;10.80;99.90;;;;;;5054133;28;19940;-80
2022/10/11 03:25:22;;;;;;;;;;;10.80;99.90;;;;;;5055004;28;20393;-81
2022/10/11 03:27:48;;;;;;;;;;;10.80;99.90;;;;;;5064406;28;19929;-81
2022/10/11 03:30:15;;;;;;;;;;;10.80;99.90;;;;;;5061411;28;20014;-80
2022/10/11 03:32:41;;;;;;;;;;;10.90;99.90;;;;;;5056886;28;19917;-81
2022/10/11 03:35:06;;;;;;;;;;;11.00;99.90;;;;;;5061339;28;19925;-81
2022/10/11 03:37:32;;;;;;;;;;;11.00;99.90;;;;;;5046682;28;19917;-80
2022/10/11 03:39:57;;;;;;;;;;;11.00;99.90;;;;;;5052836;28;19917;-81
2022/10/11 03:42:23;;;;;;;;;;;11.10;99.90;;;;;;5061141;28;19966;-81
2022/10/11 03:44:50;;;;;;;;;;;11.20;99.90;;;;;;5059851;28;19968;-81
2022/10/11 03:47:17;;;;;;;;;;;11.20;99.90;;;;;;5054469;28;19921;-80
2022/10/11 03:49:43;;;;;;;;;;;11.20;99.90;;;;;;5061223;28;20019;-81
2022/10/11 03:52:08;;;;;;;;;;;11.20;99.90;;;;;;5063781;28;20292;-81
2022/10/11 03:54:34;;;;;;;;;;;11.20;99.90;;;;;;5054311;28;19990;-81
2022/10/11 03:56:59;;;;;;;;;;;11.30;99.90;;;;;;5054507;28;19964;-81
2022/10/11 03:59:25;;;;;;;;;;;11.20;99.90;;;;;;5061989;28;20356;-81
2022/10/11 04:01:50;;;;;;;;;;;11.20;99.90;;;;;;5057067;28;20462;-81
2022/10/11 04:04:16;;;;;;;;;;;11.20;99.90;;;;;;5058405;28;19984;-81
2022/10/11 04:06:41;;;;;;;;;;;11.20;99.90;;;;;;5064388;28;19926;-81
2022/10/11 04:09:07;;;;;;;;;;;11.20;99.90;;;;;;5057291;28;20377;-81
2022/10/11 04:11:32;;;;;;;;;;;11.30;99.90;;;;;;5049619;28;19928;-81
2022/10/11 04:13:58;;;;;;;;;;;11.20;99.90;;;;;;5053215;28;19952;-81
2022/10/11 04:16:23;;;;;;;;;;;11.20;99.90;;;;;;5057742;28;20313;-81
2022/10/11 04:18:49;;;;;;;;;;;11.40;99.90;;;;;;5054878;28;19916;-81
2022/10/11 04:21:14;;;;;;;;;;;11.50;99.90;;;;;;5060744;28;19960;-80
2022/10/11 04:23:40;;;;;;;;;;;11.30;99.90;;;;;;5057605;28;19919;-80
2022/10/11 04:26:06;;;;;;;;;;;11.40;99.90;;;;;;5047496;28;19929;-81
2022/10/11 04:28:31;;;;;;;;;;;11.60;99.90;;;;;;5058754;28;20255;-82
2022/10/11 04:30:57;;;;;;;;;;;11.70;99.90;;;;;;5059771;28;19920;-81
2022/10/11 04:33:22;;;;;;;;;;;11.60;99.90;;;;;;5056789;28;19928;-79
2022/10/11 04:35:51;;;;;;;;;;;11.50;99.90;;;;;;5058079;28;19927;-79
2022/10/11 04:38:17;;;;;;;;;;;11.50;99.90;;;;;;5056901;28;20397;-80
2022/10/11 04:40:43;;;;;;;;;;;11.60;99.90;;;;;;5052913;28;20045;-80
2022/10/11 04:43:08;;;;;;;;;;;11.60;99.90;;;;;;5061481;28;19996;-80
2022/10/11 04:45:34;;;;;;;;;;;11.50;99.90;;;;;;5055799;28;19925;-81
2022/10/11 04:47:59;;;;;;;;;;;11.70;99.90;;;;;;5056272;28;19920;-81
2022/10/11 04:50:25;;;;;;;;;;;11.60;99.90;;;;;;5058948;28;19916;-80
2022/10/11 04:52:50;;;;;;;;;;;11.70;99.90;;;;;;5059023;28;20505;-80
2022/10/11 04:55:16;;;;;;;;;;;11.80;99.90;;;;;;5049812;28;19925;-80
2022/10/11 04:57:41;;;;;;;;;;;11.60;99.90;;;;;;5060944;28;20011;-81
2022/10/11 05:00:07;;;;;;;;;;;11.70;99.90;;;;;;5055362;28;20016;-82
2022/10/11 05:02:32;;;;;;;;;;;11.80;99.90;;;;;;5051390;28;20019;-82
2022/10/11 05:04:58;;;;;;;;;;;11.70;99.90;;;;;;5049238;28;19928;-81
2022/10/11 05:07:24;;;;;;;;;;;11.80;99.90;;;;;;5052475;28;20415;-81
2022/10/11 05:09:49;;;;;;;;;;;12.00;99.90;;;;;;5055574;28;20015;-81
2022/10/11 05:12:15;;;;;;;;;;;11.70;99.90;;;;;;5052540;28;19928;-80
2022/10/11 05:14:40;;;;;;;;;;;11.80;99.90;;;;;;5055673;28;19925;-81
2022/10/11 05:17:06;;;;;;;;;;;11.80;99.90;;;;;;5051766;28;19912;-81
2022/10/11 05:19:31;;;;;;;;;;;11.80;99.90;;;;;;5060992;28;19959;-80
2022/10/11 05:21:57;;;;;;;;;;;11.70;99.90;;;;;;5059151;28;19928;-83
2022/10/11 05:24:22;;;;;;;;;;;11.90;99.90;;;;;;5053692;28;19925;-82
2022/10/11 05:26:48;;;;;;;;;;;11.80;99.90;;;;;;5056784;28;20358;-82
2022/10/11 05:29:14;;;;;;;;;;;11.90;99.90;;;;;;5052828;28;19928;-83
2022/10/11 05:31:40;;;;;;;;;;;11.80;99.90;;;;;;5048740;28;19942;-83
2022/10/11 05:34:05;;;;;;;;;;;11.60;99.90;;;;;;5048713;28;19916;-81
2022/10/11 05:36:31;;;;;;;;;;;11.90;99.90;;;;;;5050406;28;19924;-80
2022/10/11 05:38:56;;;;;;;;;;;11.80;99.90;;;;;;5053946;28;19994;-80
2022/10/11 05:41:22;;;;;;;;;;;11.60;99.90;;;;;;5051273;28;19928;-81
2022/10/11 05:43:47;;;;;;;;;;;11.70;99.90;;;;;;5081328;28;19904;-80
2022/10/11 05:46:14;;;;;;;;;;;11.70;99.90;;;;;;5079561;28;19935;-80
2022/10/11 05:48:40;;;;;;;;;;;11.80;99.90;;;;;;5045273;28;19923;-81
2022/10/11 05:51:08;;;;;;;;;;;11.90;99.90;;;;;;5041941;28;19916;-80
2022/10/11 05:53:34;;;;;;;;;;;12.00;99.90;;;;;;5041458;28;19921;-80
2022/10/11 05:55:59;;;;;;;;;;;11.90;99.90;;;;;;5038690;28;19921;-80
2022/10/11 05:58:25;;;;;;;;;;;11.80;99.90;;;;;;5040685;28;19929;-80
2022/10/11 06:00:50;;;;;;;;;;;11.90;99.90;;;;;;5038137;28;19932;-79
2022/10/11 06:03:16;;;;;;;;;;;12.00;99.90;;;;;;5039793;28;20615;-81
2022/10/11 06:05:42;;;;;;;;;;;11.80;99.90;;;;;;5039600;28;19920;-80
2022/10/11 06:08:08;;;;;;;;;;;11.60;99.90;;;;;;5036516;28;19924;-81
2022/10/11 06:10:35;;;;;;;;;;;11.50;99.90;;;;;;5039425;28;19939;-80
2022/10/11 06:13:00;;;;;;;;;;;11.60;99.90;;;;;;5038115;28;19921;-80
2022/10/11 06:15:26;;;;;;;;;;;11.50;99.90;;;;;;5037679;28;19929;-80
2022/10/11 06:17:51;;;;;;;;;;;11.80;99.90;;;;;;5038341;28;19917;-80
2022/10/11 06:20:17;;;;;;;;;;;11.80;99.90;;;;;;5038512;28;19924;-79
2022/10/11 06:22:43;;;;;;;;;;;11.80;99.90;;;;;;5039955;28;19920;-82
2022/10/11 06:25:08;;;;;;;;;;;11.80;99.90;;;;;;5038750;28;20033;-80
2022/10/11 06:27:34;;;;;;;;;;;12.00;99.90;;;;;;5038861;28;19925;-80
2022/10/11 06:29:59;;;;;;;;;;;12.00;99.90;;;;;;5038940;28;20098;-80
2022/10/11 06:32:25;;;;;;;;;;;12.10;99.90;;;;;;5040409;28;20382;-80
2022/10/11 06:34:51;;;;;;;;;;;12.20;99.90;;;;;;5040602;28;20043;-80
2022/10/11 06:37:16;;;;;;;;;;;12.30;99.90;;;;;;5038819;28;19929;-80
2022/10/11 06:39:41;;;;;;;;;;;12.30;99.90;;;;;;5038013;28;19923;-80
2022/10/11 06:42:08;;;;;;;;;;;12.40;99.90;;;;;;5037033;28;21025;-80
2022/10/11 06:44:34;;;;;;;;;;;12.40;99.90;;;;;;5039612;28;19956;-80
2022/10/11 06:46:59;;;;;;;;;;;12.30;99.90;;;;;;5040439;28;20008;-80
2022/10/11 06:49:25;;;;;;;;;;;12.40;99.90;;;;;;5039055;28;19953;-80
2022/10/11 06:51:50;;;;;;;;;;;12.50;99.90;;;;;;5037113;28;19932;-81
2022/10/11 06:54:16;;;;;;;;;;;12.60;99.90;;;;;;5037964;28;19925;-80
2022/10/11 06:56:43;;;;;;;;;;;12.80;99.90;;;;;;5036760;28;19967;-79
2022/10/11 06:59:09;;;;;;;;;;;12.80;99.90;;;;;;5038655;28;19924;-80
2022/10/11 07:01:34;;;;;;;;;;;12.80;99.90;;;;;;5037267;28;20330;-80
2022/10/11 07:04:01;;;;;;;;;;;12.70;99.90;;;;;;5038167;28;20012;-80
2022/10/11 07:06:28;;;;;;;;;;;12.80;99.90;;;;;;5041223;28;20019;-81
2022/10/11 07:08:54;;;;;;;;;;;12.70;99.90;;;;;;5037332;28;19916;-80
2022/10/11 07:11:23;;;;;;;;;;;12.80;99.90;;;;;;5038830;28;20371;-80
2022/10/11 07:13:53;;;;;;;;;;;12.80;99.90;;;;;;5037323;28;20062;-80
2022/10/11 07:16:19;;;;;;;;;;;12.70;99.90;;;;;;5037786;28;19929;-82
2022/10/11 07:18:45;;;;;;;;;;;12.80;99.90;;;;;;5037794;28;19924;-81
2022/10/11 07:21:12;;;;;;;;;;;12.80;99.90;;;;;;5036935;28;20057;-82
2022/10/11 07:23:38;;;;;;;;;;;12.80;99.90;;;;;;5041268;28;20295;-82
2022/10/11 07:26:05;;;;;;;;;;;12.80;99.90;;;;;;5042592;28;20383;-84
2022/10/11 07:28:33;;;;;;;;;;;12.70;99.90;;;;;;5041180;28;19917;-82
2022/10/11 07:31:02;;;;;;;;;;;12.80;99.90;;;;;;5043181;28;19925;-82
2022/10/11 07:33:28;;;;;;;;;;;12.90;99.90;;;;;;5041215;28;19921;-82
2022/10/11 07:35:55;;;;;;;;;;;13.00;99.90;;;;;;5042323;28;19947;-82
2022/10/11 07:38:21;;;;;;;;;;;13.00;99.90;;;;;;5041207;28;20849;-82
2022/10/11 07:40:46;;;;;;;;;;;12.90;99.90;;;;;;5039950;28;20018;-82
2022/10/11 07:43:12;;;;;;;;;;;13.10;99.90;;;;;;5043676;28;19928;-82
2022/10/11 07:45:38;;;;;;;;;;;13.00;99.90;;;;;;5041576;28;19929;-83
2022/10/11 07:48:04;;;;;;;;;;;13.20;99.90;;;;;;5041031;28;19921;-82
2022/10/11 07:50:30;;;;;;;;;;;13.50;99.90;;;;;;5041573;28;19983;-84
2022/10/11 07:52:55;;;;;;;;;;;13.50;99.90;;;;;;5040793;28;19928;-84
2022/10/11 07:55:21;;;;;;;;;;;13.60;99.90;;;;;;5041915;28;20042;-84
2022/10/11 07:57:46;;;;;;;;;;;13.80;99.90;;;;;;5040243;28;20794;-84
2022/10/11 08:00:12;;;;;;;;;;;14.10;99.90;;;;;;5042293;28;19921;-85
2022/10/11 08:02:38;;;;;;;;;;;14.10;99.90;;;;;;5042906;28;19927;-85
2022/10/11 08:05:03;;;;;;;;;;;14.20;99.90;;;;;;5048959;28;19947;-85
2022/10/11 08:07:29;;;;;;;;;;;14.30;99.90;;;;;;5048293;28;20314;-85
2022/10/11 08:09:55;;;;;;;;;;;14.30;99.90;;;;;;5044568;28;19974;-84
2022/10/11 08:12:20;;;;;;;;;;;14.30;99.90;;;;;;5048660;28;19921;-84
2022/10/11 08:14:46;;;;;;;;;;;14.30;99.90;;;;;;5047910;28;19924;-85
2022/10/11 08:17:13;;;;;;;;;;;14.50;99.90;;;;;;5043971;28;19920;-85
2022/10/11 08:19:38;;;;;;;;;;;14.80;99.90;;;;;;5044951;28;19955;-84
2022/10/11 08:22:04;;;;;;;;;;;14.70;99.90;;;;;;5049928;28;19916;-85
2022/10/11 08:24:30;;;;;;;;;;;14.50;99.90;;;;;;5047059;28;20299;-85
2022/10/11 08:26:55;;;;;;;;;;;14.80;99.90;;;;;;5044830;28;20435;-85
2022/10/11 08:29:21;;;;;;;;;;;15.00;99.90;;;;;;5050955;28;19917;-85
2022/10/11 08:31:46;;;;;;;;;;;14.90;99.90;;;;;;5065277;28;19916;-86
2022/10/11 08:34:12;;;;;;;;;;;15.00;99.90;;;;;;5054305;28;19960;-85
2022/10/11 08:36:38;;;;;;;;;;;15.00;99.90;;;;;;5041941;28;19942;-85
2022/10/11 08:39:05;;;;;;;;;;;15.30;99.90;;;;;;5040239;28;19913;-85
2022/10/11 08:41:36;;;;;;;;;;;15.30;99.90;;;;;;5042088;28;19914;-85
2022/10/11 08:44:21;;;;;;;;;;;15.20;99.90;;;;;;5043617;28;19928;-85
2022/10/11 08:46:49;;;;;;;;;;;15.50;99.50;;;;;;5042676;28;19937;-85
2022/10/11 08:49:18;;;;;;;;;;;15.90;96.40;;;;;;5041034;28;19924;-85
2022/10/11 08:51:48;;;;;;;;;;;15.80;95.90;;;;;;5039755;28;20432;-85
2022/10/11 08:54:14;;;;;;;;;;;15.50;95.60;;;;;;5039558;28;19921;-85
2022/10/11 08:56:40;;;;;;;;;;;15.80;95.70;;;;;;5042011;28;19936;-83
2022/10/11 08:59:12;;;;;;;;;;;16.10;93.10;;;;;;5043269;28;19928;-84
2022/10/11 09:01:43;;;;;;;;;;;16.40;92.10;;;;;;5040632;28;19925;-84
2022/10/11 09:04:15;;;;;;;;;;;16.00;92.80;;;;;;5041956;28;19928;-83
2022/10/11 09:07:00;;;;;;;;;;;16.30;92.40;;;;;;5041820;28;19921;-82
2022/10/11 09:09:40;;;;;;;;;;;16.60;91.50;;;;;;5045411;28;20566;-83
2022/10/11 09:12:24;;;;;;;;;;;16.50;91.20;;;;;;5044462;28;19917;-83
2022/10/11 09:14:59;;;;;;;;;;;15.90;92.70;;;;;;5041983;28;20417;-83
2022/10/11 09:17:33;;;;;;;;;;;16.40;91.90;;;;;;5043240;28;20405;-83
2022/10/11 09:20:21;;;;;;;;;;;16.50;91.00;;;;;;5040280;28;19917;-84
2022/10/11 09:23:00;;;;;;;;;;;16.50;91.40;;;;;;5041605;28;19920;-83
2022/10/11 09:25:32;;;;;;;;;;;16.50;90.80;;;;;;5040498;28;19917;-83
2022/10/11 09:27:57;;;;;;;;;;;16.20;91.50;;;;;;5042522;28;19966;-83
2022/10/11 09:30:23;;;;;;;;;;;16.10;91.90;;;;;;5043296;28;19925;-83
2022/10/11 09:33:02;;;;;;;;;;;16.20;92.20;;;;;;5042921;28;19940;-84
2022/10/11 09:35:31;;;;;;;;;;;16.10;93.30;;;;;;5041108;28;19952;-83
2022/10/11 09:38:03;;;;;;;;;;;16.60;91.20;;;;;;5042240;28;19913;-83
2022/10/11 09:40:37;;;;;;;;;;;16.50;90.00;;;;;;5042492;28;19921;-84
2022/10/11 09:43:03;;;;;;;;;;;16.50;89.20;;;;;;5047858;28;19924;-84
2022/10/11 09:45:29;;;;;;;;;;;16.10;90.80;;;;;;5037844;28;19932;-83
2022/10/11 09:47:56;;;;;;;;;;;16.40;89.90;;;;;;5040563;28;19960;-83
2022/10/11 09:50:24;;;;;;;;;;;16.50;90.00;;;;;;5040264;28;20324;-83
2022/10/11 09:52:51;;;;;;;;;;;16.40;90.20;;;;;;5042852;28;21172;-83
2022/10/11 09:55:29;;;;;;;;;;;16.70;90.30;;;;;;5042130;28;20374;-83
2022/10/11 09:57:55;;;;;;;;;;;16.80;89.70;;;;;;5042612;28;19912;-83
2022/10/11 10:00:21;;;;;;;;;;;16.90;87.40;;;;;;5039589;28;19921;-83
2022/10/11 10:02:49;;;;;;;;;;;16.80;88.70;;;;;;5041918;28;19923;-83
2022/10/11 10:05:25;;;;;;;;;;;16.60;87.90;;;;;;5040728;28;19920;-83
2022/10/11 10:08:00;;;;;;;;;;;16.80;87.70;;;;;;5039192;28;20295;-81
2022/10/11 10:10:32;;;;;;;;;;;17.20;86.80;;;;;;5039915;28;20012;-82
2022/10/11 10:12:59;;;;;;;;;;;17.40;85.60;;;;;;5038126;28;20295;-83
2022/10/11 10:15:27;;;;;;;;;;;17.60;84.00;;;;;;5038614;28;20035;-82
2022/10/11 10:17:53;;;;;;;;;;;16.90;84.90;;;;;;5037788;28;19970;-85
2022/10/11 10:20:23;;;;;;;;;;;16.60;88.70;;;;;;5039308;28;19925;-84
2022/10/11 10:22:50;;;;;;;;;;;16.30;88.70;;;;;;5041640;28;19920;-85
2022/10/11 10:25:20;;;;;;;;;;;16.00;91.00;;;;;;5039644;28;20284;-85
2022/10/11 10:27:55;;;;;;;;;;;16.10;91.10;;;;;;5038368;28;19917;-85
2022/10/11 10:30:21;;;;;;;;;;;16.30;90.20;;;;;;5038039;28;19917;-84
2022/10/11 10:32:59;;;;;;;;;;;16.50;88.90;;;;;;5037665;28;20365;-85
2022/10/11 10:35:36;;;;;;;;;;;16.40;87.30;;;;;;5038761;28;19960;-82
2022/10/11 10:38:01;;;;;;;;;;;16.40;87.30;;;;;;5040037;28;20393;-85
2022/10/11 10:40:35;;;;;;;;;;;16.50;86.40;;;;;;5038853;28;19914;-83
2022/10/11 10:43:00;;;;;;;;;;;16.50;86.20;;;;;;5038882;28;20012;-83
2022/10/11 10:45:29;;;;;;;;;;;16.60;85.60;;;;;;5039654;28;20716;-83
2022/10/11 10:48:04;;;;;;;;;;;16.30;88.00;;;;;;5037981;28;19920;-82
2022/10/11 10:50:52;;;;;;;;;;;16.60;86.30;;;;;;5037725;28;19913;-82
2022/10/11 10:53:36;;;;;;;;;;;16.50;86.80;;;;;;5040904;28;19921;-81
2022/10/11 10:56:04;;;;;;;;;;;16.60;87.90;;;;;;5040203;28;20360;-81
2022/10/11 10:58:48;;;;;;;;;;;16.80;86.30;;;;;;5042322;28;19916;-83
2022/10/11 11:01:18;;;;;;;;;;;16.50;85.70;;;;;;5041523;28;19928;-80
2022/10/11 11:03:52;;;;;;;;;;;16.70;86.10;;;;;;5041335;28;19978;-81
2022/10/11 11:06:25;;;;;;;;;;;17.10;84.90;;;;;;5044293;28;19921;-81
2022/10/11 11:08:51;;;;;;;;;;;17.30;83.90;;;;;;5042721;28;19942;-82
2022/10/11 11:11:16;;;;;;;;;;;17.40;79.60;;;;;;5041837;28;20351;-83
2022/10/11 11:13:58;;;;;;;;;;;17.30;81.20;;;;;;5057513;28;19900;-80
2022/10/11 11:16:28;;;;;;;;;;;17.50;81.30;;;;;;5063220;28;19933;-82
2022/10/11 11:19:08;;;;;;;;;;;17.20;81.00;;;;;;5048565;28;19943;-82
2022/10/11 11:21:37;;;;;;;;;;;17.00;80.50;;;;;;5051200;28;20366;-81
2022/10/11 11:24:12;;;;;;;;;;;17.10;81.80;;;;;;5044225;28;19916;-80
2022/10/11 11:26:51;;;;;;;;;;;17.20;81.00;;;;;;5041246;28;20382;-81
2022/10/11 11:29:35;;;;;;;;;;;17.00;80.80;;;;;;5042898;28;21044;-81
2022/10/11 11:32:16;;;;;;;;;;;16.90;82.40;;;;;;5040873;28;19924;-81
2022/10/11 11:34:59;;;;;;;;;;;16.90;81.30;;;;;;5043645;28;20019;-82
2022/10/11 11:37:33;;;;;;;;;;;17.00;81.50;;;;;;5044405;28;19951;-80
2022/10/11 11:40:12;;;;;;;;;;;16.50;82.00;;;;;;5040770;28;20000;-82
2022/10/11 11:42:39;;;;;;;;;;;16.80;81.00;;;;;;5042472;28;20414;-81
2022/10/11 11:45:14;;;;;;;;;;;16.80;80.30;;;;;;5039676;28;19940;-81
2022/10/11 11:47:42;;;;;;;;;;;17.00;81.60;;;;;;5041640;28;19921;-82
2022/10/11 11:50:22;;;;;;;;;;;17.00;81.00;;;;;;5042155;28;20450;-81
2022/10/11 11:52:51;;;;;;;;;;;17.00;81.10;;;;;;5042889;28;19929;-81
2022/10/11 11:55:36;;;;;;;;;;;17.10;80.20;;;;;;5043560;28;19921;-80
2022/10/11 11:58:20;;;;;;;;;;;17.40;79.00;;;;;;5012536;28;19917;-82
2022/10/11 12:01:05;;;;;;;;;;;17.70;78.00;;;;;;5040295;28;19921;-83
2022/10/11 12:03:33;;;;;;;;;;;18.10;75.90;;;;;;5040881;28;19959;-80
2022/10/11 12:06:11;;;;;;;;;;;17.90;75.80;;;;;;5043204;28;19924;-80
2022/10/11 12:08:37;;;;;;;;;;;18.10;76.20;;;;;;5041864;28;19967;-81
2022/10/11 12:11:03;;;;;;;;;;;18.40;75.40;;;;;;5040532;28;19920;-80
2022/10/11 12:13:33;;;;;;;;;;;18.60;74.90;;;;;;5040962;28;19931;-81
2022/10/11 12:16:08;;;;;;;;;;;19.00;73.40;;;;;;5039866;28;19917;-80
2022/10/11 12:18:35;;;;;;;;;;;18.80;72.60;;;;;;5038848;28;20035;-81
2022/10/11 12:21:05;;;;;;;;;;;19.10;69.80;;;;;;5037931;28;20012;-80
2022/10/11 12:23:31;;;;;;;;;;;19.30;68.80;;;;;;5039494;28;19925;-80
2022/10/11 12:26:15;;;;;;;;;;;19.30;69.70;;;;;;5040458;28;19920;-80
2022/10/11 12:28:41;;;;;;;;;;;19.60;69.00;;;;;;5042739;28;20003;-80
2022/10/11 12:31:20;;;;;;;;;;;19.30;68.40;;;;;;5043008;28;20015;-80
2022/10/11 12:33:46;;;;;;;;;;;18.90;70.30;;;;;;5048304;28;20550;-81
2022/10/11 12:36:22;;;;;;;;;;;19.70;67.60;;;;;;5047028;28;19992;-80
2022/10/11 12:39:07;;;;;;;;;;;19.40;68.70;;;;;;5046063;28;19913;-80
2022/10/11 12:41:50;;;;;;;;;;;19.20;66.60;;;;;;5046910;28;19917;-81
2022/10/11 12:44:23;;;;;;;;;;;19.40;66.10;;;;;;5047659;28;19924;-80
2022/10/11 12:46:48;;;;;;;;;;;19.30;66.40;;;;;;5048057;28;19970;-82
2022/10/11 12:49:32;;;;;;;;;;;19.30;67.70;;;;;;5047220;28;19917;-82
2022/10/11 12:52:03;;;;;;;;;;;19.00;66.90;;;;;;5047603;28;19923;-83
2022/10/11 12:54:44;;;;;;;;;;;19.30;67.40;;;;;;5048842;28;19921;-82
2022/10/11 12:57:09;;;;;;;;;;;19.40;66.60;;;;;;5048296;28;19913;-81
2022/10/11 12:59:45;;;;;;;;;;;20.10;67.00;;;;;;5047115;28;19921;-81
2022/10/11 13:02:28;;;;;;;;;;;19.40;65.50;;;;;;5046601;28;19982;-80
2022/10/11 13:05:23;;;;;;;;;;;19.10;66.70;;;;;;5048714;28;20015;-81
2022/10/11 13:07:49;;;;;;;;;;;19.20;67.00;;;;;;5039613;28;19920;-80
2022/10/11 13:10:17;;;;;;;;;;;19.80;67.00;;;;;;5048532;28;19917;-78
2022/10/11 13:12:45;;;;;;;;;;;19.80;65.10;;;;;;5047990;28;20016;-78
2022/10/11 13:15:15;;;;;;;;;;;20.10;64.50;;;;;;5046902;28;20374;-79
2022/10/11 13:17:41;;;;;;;;;;;20.30;63.60;;;;;;5048174;28;19979;-78
2022/10/11 13:20:16;;;;;;;;;;;20.40;63.70;;;;;;5051287;28;19931;-78
2022/10/11 13:22:42;;;;;;;;;;;21.20;60.00;;;;;;5049524;28;19921;-80
2022/10/11 13:25:08;;;;;;;;;;;20.10;62.70;;;;;;5047660;28;19917;-77
2022/10/11 13:27:35;;;;;;;;;;;19.20;65.00;;;;;;5049309;28;19924;-79
2022/10/11 13:30:02;;;;;;;;;;;18.70;65.90;;;;;;5047822;28;20386;-79
2022/10/11 13:32:29;;;;;;;;;;;18.10;68.80;;;;;;5047265;28;19924;-78
2022/10/11 13:34:56;;;;;;;;;;;17.90;69.10;;;;;;5047352;28;20381;-77
2022/10/11 13:37:24;;;;;;;;;;;18.40;69.30;;;;;;5048561;28;20085;-79
2022/10/11 13:39:53;;;;;;;;;;;18.90;68.60;;;;;;5048932;28;19998;-78
2022/10/11 13:42:20;;;;;;;;;;;19.10;68.20;;;;;;5047708;28;19925;-80
2022/10/11 13:44:46;;;;;;;;;;;19.90;65.10;;;;;;5048525;28;20391;-79
2022/10/11 13:47:13;;;;;;;;;;;18.90;64.60;;;;;;5047946;28;19921;-78
2022/10/11 13:49:42;;;;;;;;;;;18.80;67.50;;;;;;5053667;28;20081;-81
2022/10/11 13:52:17;;;;;;;;;;;19.90;63.70;;;;;;5053354;28;19921;-81
2022/10/11 13:54:51;;;;;;;;;;;21.60;58.10;;;;;;5053086;28;19968;-81
2022/10/11 13:57:17;;;;;;;;;;;22.40;55.40;;;;;;5051560;28;19919;-80
2022/10/11 13:59:43;;;;;;;;;;;24.30;52.30;;;;;;5051515;28;19913;-78
2022/10/11 14:02:16;;;;;;;;;;;24.40;49.30;;;;;;5060369;28;19917;-77
2022/10/11 14:04:41;;;;;;;;;;;24.40;49.20;;;;;;5060746;28;19912;-78
2022/10/11 14:07:21;;;;;;;;;;;22.70;52.00;;;;;;5060338;28;19926;-78
2022/10/11 14:09:47;;;;;;;;;;;21.60;56.70;;;;;;5059736;28;20281;-79
2022/10/11 14:12:25;;;;;;;;;;;21.90;55.90;;;;;;5057438;28;19924;-77
2022/10/11 14:14:50;;;;;;;;;;;21.80;58.00;;;;;;5057939;28;20008;-78
2022/10/11 14:17:19;;;;;;;;;;;23.00;54.70;;;;;;5059229;28;20398;-78
2022/10/11 14:19:45;;;;;;;;;;;23.90;50.60;;;;;;5060004;28;19921;-78
2022/10/11 14:22:13;;;;;;;;;;;23.20;52.10;;;;;;5060914;28;19921;-78
2022/10/11 14:24:39;;;;;;;;;;;22.60;53.90;;;;;;5059977;28;19927;-80
2022/10/11 14:27:05;;;;;;;;;;;20.60;58.20;;;;;;5061093;28;19921;-78